Time;durP1;ratioP1;P1;durP2;ratioP2;P2;SDS_P1;SDS_P2;PMS_P1;PMS_P2;Temp;Humidity;BMP_temperature;BMP_pressure;BME280_temperature;BME280_humidity;BME280_pressure;Samples;Min_cycle;Max_cycle;Signal;HPM_P1;HPM_P2
2021/06/03 00:01:58;;;;;;;;;;;;;;;8.90;68.69;101383.44;104793;1093;77881;-66
2021/06/03 00:04:04;;;;;;;;;;;;;;;8.81;68.43;101390.63;104775;1093;76718;-66
2021/06/03 00:06:09;;;;;;;;;;;;;;;8.77;68.45;101393.75;104775;1093;76942;-59
2021/06/03 00:08:16;;;;;;;;;;;;;;;8.73;68.50;101389.69;104830;1092;77908;-60
2021/06/03 00:10:25;;;;;;;;;;;;;;;8.69;68.75;101396.38;104826;1093;77671;-59
2021/06/03 00:12:34;;;;;;;;;;;;;;;8.70;68.58;101398.93;104861;1093;78233;-59
2021/06/03 00:14:40;;;;;;;;;;;;;;;8.75;68.68;101393.07;104822;1092;77231;-59
2021/06/03 00:16:45;;;;;;;;;;;;;;;8.82;68.81;101386.91;104814;1093;76905;-66
2021/06/03 00:18:50;;;;;;;;;;;;;;;8.86;68.93;101391.00;104840;1092;78392;-66
2021/06/03 00:20:59;;;;;;;;;;;;;;;8.89;68.89;101390.70;104813;1092;76622;-60
2021/06/03 00:23:05;;;;;;;;;;;;;;;8.90;69.19;101392.38;104813;1093;76699;-59
2021/06/03 00:25:13;;;;;;;;;;;;;;;8.83;68.99;101396.70;104771;1093;77769;-59
2021/06/03 00:27:18;;;;;;;;;;;;;;;8.81;69.03;101387.93;104861;1091;77266;-66
2021/06/03 00:29:23;;;;;;;;;;;;;;;8.84;69.15;101389.47;104829;1093;77166;-65
2021/06/03 00:31:28;;;;;;;;;;;;;;;8.88;69.29;101391.69;104820;1093;76866;-59
2021/06/03 00:33:34;;;;;;;;;;;;;;;8.90;69.67;101399.60;104830;1093;77026;-59
2021/06/03 00:35:39;;;;;;;;;;;;;;;8.92;69.75;101394.08;104829;1093;77487;-66
2021/06/03 00:37:48;;;;;;;;;;;;;;;8.94;69.71;101394.76;104862;1093;77298;-59
2021/06/03 00:39:54;;;;;;;;;;;;;;;8.95;69.49;101388.38;104814;1093;76893;-59
2021/06/03 00:42:02;;;;;;;;;;;;;;;8.93;69.85;101393.91;104818;1093;78328;-66
2021/06/03 00:44:11;;;;;;;;;;;;;;;8.92;69.48;101392.23;104815;1093;78072;-65
2021/06/03 00:46:20;;;;;;;;;;;;;;;8.95;69.85;101391.08;104825;1093;77538;-59
2021/06/03 00:48:25;;;;;;;;;;;;;;;8.93;70.05;101399.30;104853;1093;77908;-59
2021/06/03 00:50:32;;;;;;;;;;;;;;;8.98;70.05;101385.38;104802;1092;77573;-59
2021/06/03 00:52:37;;;;;;;;;;;;;;;8.98;69.99;101399.71;104833;1093;77454;-64
2021/06/03 00:54:43;;;;;;;;;;;;;;;9.01;70.09;101393.16;104831;1093;78443;-63
2021/06/03 00:56:48;;;;;;;;;;;;;;;9.04;69.89;101401.76;104845;1093;77353;-63
2021/06/03 00:58:53;;;;;;;;;;;;;;;9.03;70.25;101391.15;104807;1093;76876;-63
2021/06/03 01:00:59;;;;;;;;;;;;;;;9.00;70.11;101395.00;104840;1093;76678;-59
2021/06/03 01:03:08;;;;;;;;;;;;;;;9.02;70.28;101392.14;104825;1093;78076;-59
2021/06/03 01:05:18;;;;;;;;;;;;;;;9.05;70.06;101387.30;104819;1093;77403;-57
2021/06/03 01:07:23;;;;;;;;;;;;;;;9.08;70.18;101391.52;104856;1093;77115;-59
2021/06/03 01:09:31;;;;;;;;;;;;;;;9.12;70.05;101390.22;104844;1092;77029;-59
2021/06/03 01:11:40;;;;;;;;;;;;;;;9.17;70.57;101386.06;104819;1093;77423;-63
2021/06/03 01:13:56;;;;;;;;;;;;;;;9.26;70.03;101386.94;104830;1093;76913;-63
2021/06/03 01:16:04;;;;;;;;;;;;;;;9.32;70.22;101392.56;104818;1093;77170;-63
2021/06/03 01:18:10;;;;;;;;;;;;;;;9.31;70.20;101385.47;104840;1093;77940;-63
2021/06/03 01:20:17;;;;;;;;;;;;;;;9.32;70.25;101386.32;104850;1093;77262;-64
2021/06/03 01:22:24;;;;;;;;;;;;;;;9.33;70.19;101386.19;104840;1093;77447;-64
2021/06/03 01:24:31;;;;;;;;;;;;;;;9.29;70.42;101383.94;104831;1093;78213;-64
2021/06/03 01:26:36;;;;;;;;;;;;;;;9.31;70.00;101382.77;104826;1093;76672;-64
2021/06/03 01:28:43;;;;;;;;;;;;;;;9.31;70.36;101384.65;104830;1093;77965;-63
2021/06/03 01:30:53;;;;;;;;;;;;;;;9.32;70.54;101384.48;104830;1093;77589;-63
2021/06/03 01:33:05;;;;;;;;;;;;;;;9.35;70.33;101394.10;104837;1093;76922;-64
2021/06/03 01:35:16;;;;;;;;;;;;;;;9.35;70.58;101394.10;104871;1093;77558;-64
2021/06/03 01:37:22;;;;;;;;;;;;;;;9.34;70.48;101392.40;104861;1093;76703;-59
2021/06/03 01:39:28;;;;;;;;;;;;;;;9.35;70.65;101394.10;104836;1093;77499;-60
2021/06/03 01:41:33;;;;;;;;;;;;;;;9.34;70.53;101395.09;104836;1093;77621;-59
2021/06/03 01:43:42;;;;;;;;;;;;;;;9.32;70.74;101395.27;104766;1093;77979;-60
2021/06/03 01:45:48;;;;;;;;;;;;;;;9.35;70.78;101399.49;104776;1093;77640;-59
2021/06/03 01:47:54;;;;;;;;;;;;;;;9.39;71.02;101401.70;104771;1092;77128;-58
2021/06/03 01:49:59;;;;;;;;;;;;;;;9.43;71.24;101400.41;104757;1092;77264;-58
2021/06/03 01:52:06;;;;;;;;;;;;;;;9.47;71.26;101398.25;104830;1093;78473;-63
2021/06/03 01:54:13;;;;;;;;;;;;;;;9.50;71.19;101401.45;104824;1093;78367;-63
2021/06/03 01:56:19;;;;;;;;;;;;;;;9.55;70.75;101398.30;104825;1093;77887;-58
2021/06/03 01:58:24;;;;;;;;;;;;;;;9.61;70.72;101402.22;104846;1092;77760;-58
2021/06/03 02:00:33;;;;;;;;;;;;;;;9.62;71.10;101407.44;104808;1093;77464;-59
2021/06/03 02:02:38;;;;;;;;;;;;;;;9.64;71.11;101405.42;104843;1093;77929;-59
2021/06/03 02:04:43;;;;;;;;;;;;;;;9.67;71.13;101402.41;104832;1092;76881;-59
2021/06/03 02:06:48;;;;;;;;;;;;;;;9.69;71.05;101400.42;104807;1093;78076;-59
2021/06/03 02:08:54;;;;;;;;;;;;;;;9.71;71.15;101400.25;104806;1093;77914;-59
2021/06/03 02:11:00;;;;;;;;;;;;;;;9.72;71.06;101413.59;104844;1093;78566;-62
2021/06/03 02:13:12;;;;;;;;;;;;;;;9.70;71.05;101412.89;104818;1092;76987;-65
2021/06/03 02:15:18;;;;;;;;;;;;;;;9.73;71.10;101407.17;104831;1093;78429;-65
2021/06/03 02:17:29;;;;;;;;;;;;;;;9.76;71.01;101401.47;104810;1093;76796;-64
2021/06/03 02:19:37;;;;;;;;;;;;;;;9.80;71.01;101410.09;104836;1093;78352;-65
2021/06/03 02:21:44;;;;;;;;;;;;;;;9.82;70.81;101411.63;104668;1092;77416;-60
2021/06/03 02:23:49;;;;;;;;;;;;;;;9.85;70.81;101402.36;104880;1093;77581;-60
2021/06/03 02:25:58;;;;;;;;;;;;;;;9.91;71.04;101407.13;104810;1093;77906;-64
2021/06/03 02:28:05;;;;;;;;;;;;;;;9.91;70.70;101393.63;104839;1093;77347;-64
2021/06/03 02:30:17;;;;;;;;;;;;;;;9.92;70.86;101403.40;104820;1093;78229;-66
2021/06/03 02:32:23;;;;;;;;;;;;;;;9.90;70.57;101408.97;104549;1093;77863;-59
2021/06/03 02:34:28;;;;;;;;;;;;;;;9.89;71.14;101412.67;104819;1093;77580;-59
2021/06/03 02:36:33;;;;;;;;;;;;;;;9.91;71.17;101402.58;104833;1093;77309;-58
2021/06/03 02:38:40;;;;;;;;;;;;;;;9.95;71.07;101406.63;104813;1093;76480;-58
2021/06/03 02:40:47;;;;;;;;;;;;;;;9.95;71.10;101398.53;104857;1093;76728;-58
2021/06/03 02:42:53;;;;;;;;;;;;;;;9.99;70.95;101404.47;104836;1092;78651;-64
2021/06/03 02:44:58;;;;;;;;;;;;;;;10.01;71.00;101407.84;104879;1092;76836;-64
2021/06/03 02:47:05;;;;;;;;;;;;;;;9.99;71.02;101401.77;104889;1093;78430;-64
2021/06/03 02:49:10;;;;;;;;;;;;;;;10.00;71.12;101403.44;104864;1093;78205;-64
2021/06/03 02:51:16;;;;;;;;;;;;;;;10.01;70.99;101402.45;104823;1093;77803;-60
2021/06/03 02:53:22;;;;;;;;;;;;;;;10.04;71.26;101407.52;104847;1092;77652;-59
2021/06/03 02:55:27;;;;;;;;;;;;;;;10.08;71.42;101411.58;104840;1093;77921;-60
2021/06/03 02:57:35;;;;;;;;;;;;;;;10.08;71.21;101412.43;104831;1093;77361;-60
2021/06/03 02:59:40;;;;;;;;;;;;;;;10.12;71.39;101407.56;104831;1092;77292;-58
2021/06/03 03:01:45;;;;;;;;;;;;;;;10.20;71.47;101412.17;104810;1093;77930;-65
2021/06/03 03:03:51;;;;;;;;;;;;;;;10.23;71.37;101414.55;104809;1093;78075;-65
2021/06/03 03:05:57;;;;;;;;;;;;;;;10.28;71.42;101421.16;104817;1093;77242;-65
2021/06/03 03:08:06;;;;;;;;;;;;;;;10.34;70.96;101422.37;104837;1093;77374;-65
2021/06/03 03:10:14;;;;;;;;;;;;;;;10.39;71.38;101426.27;104810;1093;77563;-65
2021/06/03 03:12:19;;;;;;;;;;;;;;;10.43;71.20;101424.10;104814;1093;78089;-64
2021/06/03 03:14:24;;;;;;;;;;;;;;;10.44;71.19;101425.77;104793;1093;76924;-64
2021/06/03 03:16:29;;;;;;;;;;;;;;;10.47;71.42;101422.75;104805;1093;77752;-58
2021/06/03 03:18:35;;;;;;;;;;;;;;;10.56;71.06;101424.48;104829;1093;76717;-58
2021/06/03 03:20:40;;;;;;;;;;;;;;;10.61;71.37;101432.93;104831;1093;78514;-58
2021/06/03 03:22:46;;;;;;;;;;;;;;;10.70;71.15;101431.95;104840;1093;77299;-65
2021/06/03 03:24:51;;;;;;;;;;;;;;;10.78;71.33;101429.27;104813;1093;77232;-65
2021/06/03 03:26:57;;;;;;;;;;;;;;;10.83;71.44;101429.61;104849;1093;77105;-64
2021/06/03 03:29:02;;;;;;;;;;;;;;;10.89;70.82;101436.21;104838;1092;77716;-65
2021/06/03 03:31:10;;;;;;;;;;;;;;;10.94;70.98;101433.85;104814;1093;77922;-64
2021/06/03 03:33:17;;;;;;;;;;;;;;;10.99;71.13;101434.19;104825;1093;78296;-65
2021/06/03 03:35:25;;;;;;;;;;;;;;;11.02;70.96;101429.30;104821;1093;77533;-64
2021/06/03 03:37:30;;;;;;;;;;;;;;;11.09;71.04;101437.61;104516;1093;76711;-64
2021/06/03 03:39:36;;;;;;;;;;;;;;;11.15;71.17;101435.06;104852;1093;78326;-64
2021/06/03 03:41:44;;;;;;;;;;;;;;;11.25;71.36;101433.06;104833;1093;78181;-64
2021/06/03 03:43:49;;;;;;;;;;;;;;;11.38;70.72;101429.83;104825;1093;78363;-67
2021/06/03 03:45:55;;;;;;;;;;;;;;;11.48;70.40;101437.80;104834;1092;78275;-60
2021/06/03 03:48:01;;;;;;;;;;;;;;;11.56;70.44;101432.38;104871;1093;76843;-58
2021/06/03 03:50:09;;;;;;;;;;;;;;;11.65;70.27;101436.74;104864;1093;76941;-59
2021/06/03 03:52:14;;;;;;;;;;;;;;;11.71;69.74;101441.52;104846;1093;76729;-66
2021/06/03 03:54:22;;;;;;;;;;;;;;;11.78;69.52;101432.52;104789;1092;77113;-65
2021/06/03 03:56:27;;;;;;;;;;;;;;;11.87;69.32;101429.83;104835;1093;78007;-59
2021/06/03 03:58:36;;;;;;;;;;;;;;;11.95;69.64;101436.05;104821;1092;78229;-58
2021/06/03 04:00:41;;;;;;;;;;;;;;;12.01;69.09;101439.92;104864;1093;77879;-59
2021/06/03 04:02:46;;;;;;;;;;;;;;;12.10;68.82;101439.75;104799;1092;77752;-65
2021/06/03 04:04:51;;;;;;;;;;;;;;;12.18;68.61;101434.30;104855;1093;76795;-65
2021/06/03 04:06:58;;;;;;;;;;;;;;;12.29;68.45;101442.05;104822;1093;77227;-65
2021/06/03 04:09:03;;;;;;;;;;;;;;;12.37;68.25;101447.44;104811;1093;77244;-66
2021/06/03 04:11:08;;;;;;;;;;;;;;;12.47;68.11;101440.97;104817;1093;78007;-65
2021/06/03 04:13:14;;;;;;;;;;;;;;;12.57;67.67;101438.88;104805;1093;77429;-65
2021/06/03 04:15:20;;;;;;;;;;;;;;;12.65;67.67;101445.11;104826;1093;77022;-65
2021/06/03 04:17:25;;;;;;;;;;;;;;;12.74;67.68;101449.48;104860;1093;77436;-65
2021/06/03 04:19:30;;;;;;;;;;;;;;;12.80;67.50;101437.08;104846;1093;77263;-65
2021/06/03 04:21:36;;;;;;;;;;;;;;;12.84;67.15;101441.11;104842;1093;76756;-59
2021/06/03 04:23:45;;;;;;;;;;;;;;;12.93;67.24;101438.18;104826;1093;77458;-60
2021/06/03 04:25:53;;;;;;;;;;;;;;;12.96;67.03;101437.80;104804;1092;77347;-63
2021/06/03 04:28:00;;;;;;;;;;;;;;;13.09;66.95;101439.96;104811;1092;77928;-65
2021/06/03 04:30:07;;;;;;;;;;;;;;;13.16;66.73;101443.63;104861;1092;77803;-65
2021/06/03 04:32:12;;;;;;;;;;;;;;;13.23;66.72;101444.61;104861;1093;77663;-65
2021/06/03 04:34:17;;;;;;;;;;;;;;;13.30;66.54;101448.27;104823;1093;77420;-65
2021/06/03 04:36:23;;;;;;;;;;;;;;;13.37;66.60;101451.97;104839;1093;76589;-59
2021/06/03 04:38:28;;;;;;;;;;;;;;;13.40;66.35;101446.18;104828;1093;77540;-60
2021/06/03 04:40:33;;;;;;;;;;;;;;;13.46;66.40;101450.86;104851;1093;78268;-60
2021/06/03 04:42:39;;;;;;;;;;;;;;;13.54;66.23;101448.06;104854;1093;77061;-59
2021/06/03 04:44:45;;;;;;;;;;;;;;;13.65;66.06;101457.67;104821;1093;77448;-60
2021/06/03 04:46:51;;;;;;;;;;;;;;;13.75;66.16;101454.69;104878;1093;77041;-58
2021/06/03 04:48:56;;;;;;;;;;;;;;;13.90;65.73;101448.23;104843;1093;76827;-59
2021/06/03 04:51:01;;;;;;;;;;;;;;;14.05;65.83;101448.27;104820;1093;77560;-59
2021/06/03 04:53:07;;;;;;;;;;;;;;;14.25;65.70;101449.41;104828;1093;77230;-59
2021/06/03 04:55:16;;;;;;;;;;;;;;;14.41;65.18;101451.96;104820;1093;77407;-59
2021/06/03 04:57:22;;;;;;;;;;;;;;;14.57;65.20;101450.91;104850;1092;77348;-59
2021/06/03 04:59:27;;;;;;;;;;;;;;;14.91;65.03;101455.72;104838;1093;78284;-59
2021/06/03 05:01:32;;;;;;;;;;;;;;;16.16;64.92;101446.81;104837;1093;77063;-59
2021/06/03 05:03:38;;;;;;;;;;;;;;;16.82;63.41;101454.32;104827;1092;77388;-58
2021/06/03 05:05:43;;;;;;;;;;;;;;;17.07;62.37;101446.42;104811;1093;78526;-59
2021/06/03 05:07:49;;;;;;;;;;;;;;;17.29;61.32;101447.94;104828;1093;77360;-58
2021/06/03 05:09:55;;;;;;;;;;;;;;;17.66;61.07;101441.89;104850;1093;78282;-59
2021/06/03 05:12:00;;;;;;;;;;;;;;;17.92;59.58;101443.78;104831;1093;77497;-65
2021/06/03 05:14:05;;;;;;;;;;;;;;;18.33;59.49;101450.86;104844;1093;78410;-67
2021/06/03 05:16:10;;;;;;;;;;;;;;;20.57;58.53;101444.46;104824;1093;77783;-60
2021/06/03 05:18:15;;;;;;;;;;;;;;;21.96;54.94;101440.56;104822;1093;77577;-59
2021/06/03 05:20:21;;;;;;;;;;;;;;;22.55;51.73;101445.77;104847;1093;76737;-60
2021/06/03 05:22:26;;;;;;;;;;;;;;;22.45;50.78;101439.20;104640;1093;77388;-67
2021/06/03 05:24:32;;;;;;;;;;;;;;;22.08;49.94;101441.41;104858;1093;76925;-66
2021/06/03 05:26:37;;;;;;;;;;;;;;;21.65;48.65;101450.78;104810;1093;77816;-66
2021/06/03 05:28:43;;;;;;;;;;;;;;;21.87;49.72;101453.83;104848;1093;77620;-66
2021/06/03 05:30:51;;;;;;;;;;;;;;;21.90;49.16;101447.02;104831;1093;76772;-65
2021/06/03 05:32:57;;;;;;;;;;;;;;;21.76;48.80;101446.37;104800;1093;77390;-66
2021/06/03 05:35:09;;;;;;;;;;;;;;;21.70;49.04;101459.16;104829;1093;76647;-66
2021/06/03 05:37:14;;;;;;;;;;;;;;;22.46;48.29;101454.66;104841;1093;77030;-59
2021/06/03 05:39:19;;;;;;;;;;;;;;;24.56;46.26;101453.25;104843;1093;77297;-59
2021/06/03 05:41:24;;;;;;;;;;;;;;;26.20;43.93;101451.70;104837;1093;77003;-66
2021/06/03 05:43:29;;;;;;;;;;;;;;;27.01;42.10;101443.78;104769;1093;78326;-67
2021/06/03 05:45:35;;;;;;;;;;;;;;;27.74;40.81;101458.38;104787;1093;77253;-66
2021/06/03 05:47:40;;;;;;;;;;;;;;;28.11;38.94;101453.38;104809;1093;76840;-66
2021/06/03 05:49:47;;;;;;;;;;;;;;;29.44;38.46;101441.46;104802;1092;77888;-67
2021/06/03 05:51:52;;;;;;;;;;;;;;;29.73;36.12;101447.91;104799;1093;78583;-67
2021/06/03 05:53:57;;;;;;;;;;;;;;;27.81;35.75;101456.14;104825;1092;78235;-66
2021/06/03 05:56:02;;;;;;;;;;;;;;;26.53;37.13;101455.20;104810;1093;77317;-59
2021/06/03 05:58:07;;;;;;;;;;;;;;;25.29;37.85;101452.80;104822;1093;76754;-58
2021/06/03 06:00:16;;;;;;;;;;;;;;;24.87;38.06;101455.35;104815;1093;78225;-59
2021/06/03 06:02:28;;;;;;;;;;;;;;;24.52;38.69;101454.88;104827;1093;77641;-60
2021/06/03 06:06:59;;;;;;;;;;;;;;;25.17;38.55;101455.70;104641;1093;79360;-59
2021/06/03 06:09:07;;;;;;;;;;;;;;;25.14;38.46;101449.84;104812;1093;77573;-59
2021/06/03 06:11:12;;;;;;;;;;;;;;;25.00;38.48;101456.88;104860;1093;77759;-66
2021/06/03 06:13:17;;;;;;;;;;;;;;;24.85;38.80;101457.55;104835;1093;77481;-66
2021/06/03 06:15:23;;;;;;;;;;;;;;;24.76;37.88;101464.58;104822;1093;77735;-66
2021/06/03 06:17:28;;;;;;;;;;;;;;;25.08;38.69;101457.25;104838;1093;78227;-59
2021/06/03 06:19:37;;;;;;;;;;;;;;;26.16;38.66;101464.40;104831;1093;77759;-59
2021/06/03 06:21:42;;;;;;;;;;;;;;;28.48;36.24;101462.20;104817;1093;77860;-65
2021/06/03 06:23:48;;;;;;;;;;;;;;;29.72;33.99;101454.63;104839;1093;77218;-66
2021/06/03 06:25:54;;;;;;;;;;;;;;;30.82;32.01;101455.44;104817;1093;78070;-65
2021/06/03 06:28:00;;;;;;;;;;;;;;;31.34;30.92;101451.67;104823;1093;77624;-66
2021/06/03 06:30:08;;;;;;;;;;;;;;;31.83;30.26;101451.20;104811;1093;77494;-66
2021/06/03 06:32:14;;;;;;;;;;;;;;;32.50;29.03;101455.28;104545;1092;77505;-59
2021/06/03 06:34:19;;;;;;;;;;;;;;;33.09;28.67;101459.15;104803;1093;78306;-59
2021/06/03 06:36:25;;;;;;;;;;;;;;;33.16;27.71;101459.53;104799;1093;77742;-66
2021/06/03 06:38:34;;;;;;;;;;;;;;;33.06;27.65;101454.17;104851;1093;78032;-57
2021/06/03 06:40:39;;;;;;;;;;;;;;;32.79;27.63;101455.02;104802;1092;77785;-61
2021/06/03 06:42:45;;;;;;;;;;;;;;;32.81;27.10;101455.52;104822;1093;76726;-61
2021/06/03 06:44:50;;;;;;;;;;;;;;;33.44;27.13;101449.91;104814;1093;77015;-61
2021/06/03 06:46:56;;;;;;;;;;;;;;;33.41;26.57;101461.75;104813;1093;78112;-62
2021/06/03 06:49:01;;;;;;;;;;;;;;;34.26;25.19;101455.97;104803;1093;78234;-61
2021/06/03 06:51:08;;;;;;;;;;;;;;;34.22;26.23;101457.79;104840;1092;76994;-61
2021/06/03 06:53:14;;;;;;;;;;;;;;;34.23;25.78;101452.98;104822;1092;78389;-60
2021/06/03 06:55:19;;;;;;;;;;;;;;;34.01;25.00;101465.03;104808;1093;77982;-61
2021/06/03 06:57:24;;;;;;;;;;;;;;;34.20;24.11;101456.45;104841;1092;78272;-58
2021/06/03 06:59:29;;;;;;;;;;;;;;;33.82;24.77;101453.20;104822;1093;77659;-58
2021/06/03 07:01:35;;;;;;;;;;;;;;;33.76;25.04;101462.91;104840;1093;76820;-62
2021/06/03 07:03:40;;;;;;;;;;;;;;;33.91;24.61;101448.48;104821;1093;78312;-62
2021/06/03 07:05:49;;;;;;;;;;;;;;;34.17;24.55;101454.30;104826;1093;77049;-62
2021/06/03 07:07:55;;;;;;;;;;;;;;;33.80;25.04;101452.70;104830;1093;77497;-66
2021/06/03 07:10:01;;;;;;;;;;;;;;;33.71;24.44;101454.59;104833;1093;77501;-66
2021/06/03 07:12:09;;;;;;;;;;;;;;;33.83;24.53;101460.47;104858;1092;77939;-65
2021/06/03 07:14:15;;;;;;;;;;;;;;;33.53;24.87;101455.59;104770;1093;77420;-64
2021/06/03 07:16:20;;;;;;;;;;;;;;;33.65;24.47;101453.09;104826;1093;79348;-66
2021/06/03 07:18:25;;;;;;;;;;;;;;;33.77;24.50;101456.97;104816;1092;78243;-65
2021/06/03 07:20:30;;;;;;;;;;;;;;;34.15;24.16;101454.59;104834;1093;77704;-65
2021/06/03 07:22:36;;;;;;;;;;;;;;;34.84;23.21;101452.09;104804;1093;77497;-59
2021/06/03 07:24:42;;;;;;;;;;;;;;;34.60;23.28;101457.31;104800;1093;76817;-58
2021/06/03 07:26:48;;;;;;;;;;;;;;;34.42;23.19;101455.56;104848;1093;77722;-59
2021/06/03 07:28:53;;;;;;;;;;;;;;;34.30;22.61;101457.00;104813;1092;78318;-59
2021/06/03 07:30:58;;;;;;;;;;;;;;;33.74;22.27;101449.19;104846;1093;77598;-65
2021/06/03 07:33:04;;;;;;;;;;;;;;;33.49;22.03;101446.15;104813;1093;77591;-66
2021/06/03 07:35:13;;;;;;;;;;;;;;;33.16;23.48;101449.16;104858;1092;77000;-65
2021/06/03 07:37:18;;;;;;;;;;;;;;;33.51;23.13;101455.92;104852;1093;77493;-58
2021/06/03 07:39:23;;;;;;;;;;;;;;;33.52;22.94;101454.77;104812;1093;77809;-58
2021/06/03 07:41:28;;;;;;;;;;;;;;;33.33;22.72;101453.27;104853;1093;76794;-58
2021/06/03 07:43:34;;;;;;;;;;;;;;;33.54;23.48;101448.86;104815;1093;78101;-58
2021/06/03 07:45:40;;;;;;;;;;;;;;;34.03;22.51;101451.55;104809;1093;77157;-58
2021/06/03 07:47:46;;;;;;;;;;;;;;;34.71;22.18;101453.89;104844;1093;78062;-66
2021/06/03 07:49:51;;;;;;;;;;;;;;;34.74;21.42;101455.22;104837;1093;78161;-65
2021/06/03 07:51:57;;;;;;;;;;;;;;;34.33;21.15;101447.94;104833;1093;77965;-65
2021/06/03 07:54:02;;;;;;;;;;;;;;;33.74;21.37;101451.16;104832;1093;76989;-65
2021/06/03 07:56:07;;;;;;;;;;;;;;;32.87;22.18;101457.08;104850;1093;76717;-58
2021/06/03 07:58:14;;;;;;;;;;;;;;;33.46;22.74;101453.22;104809;1093;76832;-59
2021/06/03 08:00:21;;;;;;;;;;;;;;;33.64;22.40;101448.63;104845;1093;78219;-58
2021/06/03 08:02:27;;;;;;;;;;;;;;;33.48;23.17;101450.12;104843;1093;78298;-65
2021/06/03 08:04:32;;;;;;;;;;;;;;;33.47;22.63;101454.05;104822;1093;78638;-65
2021/06/03 08:06:37;;;;;;;;;;;;;;;33.34;22.75;101452.97;104811;1093;77655;-66
2021/06/03 08:08:42;;;;;;;;;;;;;;;33.39;22.81;101454.81;104856;1093;77079;-68
2021/06/03 08:10:56;;;;;;;;;;;;;;;33.47;22.96;101446.48;104813;1093;77541;-67
2021/06/03 08:13:03;;;;;;;;;;;;;;;34.13;21.51;101442.88;104788;1093;77868;-66
2021/06/03 08:15:13;;;;;;;;;;;;;;;34.61;21.46;101445.75;104838;1092;76895;-68
2021/06/03 08:17:18;;;;;;;;;;;;;;;34.53;21.35;101446.52;104844;1093;78530;-65
2021/06/03 08:19:23;;;;;;;;;;;;;;;35.09;20.29;101445.74;104818;1093;76825;-65
2021/06/03 08:21:33;;;;;;;;;;;;;;;35.20;20.63;101443.44;104835;1093;78014;-65
2021/06/03 08:23:38;;;;;;;;;;;;;;;35.64;21.15;101445.95;104829;1093;78114;-64
2021/06/03 08:25:44;;;;;;;;;;;;;;;36.00;19.23;101448.38;104814;1092;78460;-66
2021/06/03 08:27:52;;;;;;;;;;;;;;;36.26;18.10;101443.52;104839;1093;78146;-65
2021/06/03 08:29:57;;;;;;;;;;;;;;;36.08;17.62;101441.93;104811;1093;77621;-65
2021/06/03 08:32:03;;;;;;;;;;;;;;;36.08;17.31;101448.39;104792;1093;77446;-61
2021/06/03 08:34:08;;;;;;;;;;;;;;;36.27;16.70;101442.36;104698;1093;77438;-59
2021/06/03 08:36:13;;;;;;;;;;;;;;;36.06;18.01;101445.09;104765;1093;76741;-66
2021/06/03 08:38:19;;;;;;;;;;;;;;;36.18;17.38;101438.73;104848;1093;77333;-67
2021/06/03 08:40:26;;;;;;;;;;;;;;;36.39;17.78;101431.23;104820;1093;78013;-65
2021/06/03 08:42:31;;;;;;;;;;;;;;;36.21;17.64;101440.88;104807;1093;78362;-59
2021/06/03 08:44:37;;;;;;;;;;;;;;;35.85;15.42;101437.67;104807;1093;78033;-59
2021/06/03 08:46:43;;;;;;;;;;;;;;;35.19;15.95;101431.36;104818;1093;77392;-65
2021/06/03 08:48:48;;;;;;;;;;;;;;;35.11;17.79;101443.42;104845;1093;77504;-67
2021/06/03 08:50:55;;;;;;;;;;;;;;;34.28;16.36;101448.05;104828;1093;77673;-61
2021/06/03 08:53:01;;;;;;;;;;;;;;;33.79;16.40;101445.42;104849;1093;78055;-59
2021/06/03 08:55:13;;;;;;;;;;;;;;;33.64;16.92;101443.02;104817;1093;78215;-59
2021/06/03 08:57:18;;;;;;;;;;;;;;;33.43;16.56;101430.63;104837;1093;77276;-67
2021/06/03 08:59:24;;;;;;;;;;;;;;;33.11;17.06;101449.28;104819;1092;77503;-66
2021/06/03 09:01:30;;;;;;;;;;;;;;;33.82;16.66;101433.57;104809;1093;77394;-66
2021/06/03 09:03:36;;;;;;;;;;;;;;;34.03;16.94;101445.93;104826;1092;78462;-66
2021/06/03 09:05:44;;;;;;;;;;;;;;;34.22;16.45;101442.92;104806;1093;77690;-66
2021/06/03 09:07:53;;;;;;;;;;;;;;;34.19;15.46;101441.59;104846;1093;77080;-59
2021/06/03 09:10:29;;;;;;;;;;;;;;;33.58;16.09;101441.48;104825;1093;76747;-60
2021/06/03 09:12:34;;;;;;;;;;;;;;;33.16;16.46;101442.73;104813;1093;78168;-60
2021/06/03 09:14:44;;;;;;;;;;;;;;;32.75;17.16;101439.97;104841;1093;78052;-59
2021/06/03 09:16:53;;;;;;;;;;;;;;;32.70;17.89;101442.88;104823;1093;77471;-59
2021/06/03 09:19:05;;;;;;;;;;;;;;;32.86;18.48;101454.58;104813;1093;77166;-59
2021/06/03 09:21:15;;;;;;;;;;;;;;;32.39;18.40;101450.19;104820;1092;77456;-58
2021/06/03 09:23:30;;;;;;;;;;;;;;;31.97;18.68;101448.45;104848;1093;78140;-57
2021/06/03 09:25:38;;;;;;;;;;;;;;;30.69;18.56;101439.44;104812;1093;77979;-58
2021/06/03 09:27:43;;;;;;;;;;;;;;;29.86;20.20;101435.31;104845;1093;78252;-58
2021/06/03 09:29:49;;;;;;;;;;;;;;;29.46;21.41;101437.27;104834;1093;77409;-58
2021/06/03 09:32:05;;;;;;;;;;;;;;;29.20;21.58;101433.78;104844;1093;77926;-58
2021/06/03 09:34:13;;;;;;;;;;;;;;;29.27;21.67;101424.31;104764;1093;77969;-57
2021/06/03 09:36:22;;;;;;;;;;;;;;;29.31;22.41;101433.77;104807;1092;76795;-58
2021/06/03 09:38:30;;;;;;;;;;;;;;;29.31;22.17;101430.98;104845;1093;77114;-57
2021/06/03 09:40:35;;;;;;;;;;;;;;;29.12;21.83;101427.98;104806;1093;77895;-58
2021/06/03 09:42:45;;;;;;;;;;;;;;;28.84;20.97;101432.34;104810;1093;76572;-58
2021/06/03 09:44:56;;;;;;;;;;;;;;;28.66;21.04;101433.80;104743;1093;77548;-57
2021/06/03 09:47:05;;;;;;;;;;;;;;;28.53;22.06;101436.31;104842;1093;78086;-57
2021/06/03 09:49:18;;;;;;;;;;;;;;;28.82;22.14;101431.77;104804;1092;77605;-58
2021/06/03 09:51:28;;;;;;;;;;;;;;;28.66;21.88;101433.80;104835;1093;77607;-56
2021/06/03 09:53:50;;;;;;;;;;;;;;;28.92;22.95;101420.61;104834;1093;76873;-57
2021/06/03 09:56:23;;;;;;;;;;;;;;;29.14;22.42;101422.98;104801;1093;78209;-58
2021/06/03 09:58:40;;;;;;;;;;;;;;;29.39;22.65;101431.20;104806;1093;77701;-58
2021/06/03 10:00:48;;;;;;;;;;;;;;;29.41;23.00;101434.52;104816;1093;77651;-58
2021/06/03 10:02:55;;;;;;;;;;;;;;;29.23;22.04;101426.83;104809;1093;77384;-57
2021/06/03 10:05:01;;;;;;;;;;;;;;;28.55;22.03;101437.70;104805;1093;78088;-56
2021/06/03 10:07:09;;;;;;;;;;;;;;;27.81;22.15;101426.42;104848;1093;76804;-59
2021/06/03 10:09:14;;;;;;;;;;;;;;;27.58;22.53;101437.27;104853;1093;77432;-58
2021/06/03 10:11:46;;;;;;;;;;;;;;;27.20;22.84;101428.29;104842;1093;77994;-58
2021/06/03 10:14:12;;;;;;;;;;;;;;;27.28;23.08;101427.75;104847;1093;77299;-59
2021/06/03 10:16:31;;;;;;;;;;;;;;;27.42;23.16;101425.30;104819;1092;77840;-57
2021/06/03 10:18:36;;;;;;;;;;;;;;;27.73;23.25;101423.38;104831;1093;77938;-57
2021/06/03 10:20:43;;;;;;;;;;;;;;;27.78;23.39;101426.14;104823;1093;78622;-57
2021/06/03 10:22:50;;;;;;;;;;;;;;;27.88;23.35;101421.41;104852;1093;76412;-57
2021/06/03 10:25:06;;;;;;;;;;;;;;;28.16;23.34;101427.51;104809;1093;78271;-58
2021/06/03 10:27:11;;;;;;;;;;;;;;;28.25;23.56;101417.49;104836;1093;77421;-57
2021/06/03 10:29:16;;;;;;;;;;;;;;;28.28;22.97;101420.55;104795;1093;77825;-57
2021/06/03 10:31:22;;;;;;;;;;;;;;;28.19;22.50;101422.23;104802;1093;77369;-59
2021/06/03 10:33:29;;;;;;;;;;;;;;;28.23;23.10;101419.73;104822;1093;76663;-58
2021/06/03 10:35:36;;;;;;;;;;;;;;;28.29;23.43;101413.05;104812;1093;77081;-59
2021/06/03 10:37:43;;;;;;;;;;;;;;;28.05;22.86;101427.53;104824;1093;77747;-58
2021/06/03 10:39:50;;;;;;;;;;;;;;;27.66;22.71;101433.94;104789;1093;77441;-57
2021/06/03 10:41:55;;;;;;;;;;;;;;;27.01;22.93;101426.30;104887;1093;77511;-57
2021/06/03 10:44:00;;;;;;;;;;;;;;;26.33;23.85;101426.28;104821;1093;77625;-71
2021/06/03 10:46:07;;;;;;;;;;;;;;;25.94;24.22;101422.11;104838;1093;77571;-60
2021/06/03 10:48:13;;;;;;;;;;;;;;;25.76;24.99;101431.69;104811;1092;78246;-57
2021/06/03 10:50:22;;;;;;;;;;;;;;;26.02;25.11;101431.84;104801;1093;78318;-57